Time;durP1;ratioP1;P1;durP2;ratioP2;P2;SDS_P1;SDS_P2;PMS_P1;PMS_P2;Temp;Humidity;BMP_temperature;BMP_pressure;BME280_temperature;BME280_humidity;BME280_pressure;Samples;Min_cycle;Max_cycle;Signal;HPM_P1;HPM_P2
2022/05/08 00:02:55;;;;;;;19.52;11.85;;;;;;;;;;6226998;23;20624;-88
2022/05/08 00:06:06;;;;;;;17.52;11.32;;;;;;;;;;6208691;23;20148;-88
2022/05/08 00:09:13;;;;;;;21.15;12.63;;;;;;;;;;6228210;23;20154;-89
2022/05/08 00:12:19;;;;;;;18.35;11.80;;;;;;;;;;6210453;23;20247;-89
2022/05/08 00:15:24;;;;;;;18.45;12.25;;;;;;;;;;6227360;23;20178;-89
2022/05/08 00:18:33;;;;;;;27.20;14.48;;;;;;;;;;6209123;23;20167;-88
2022/05/08 00:21:39;;;;;;;18.80;12.30;;;;;;;;;;6208026;23;20155;-89
2022/05/08 00:24:45;;;;;;;21.48;12.63;;;;;;;;;;6209111;23;20171;-90
2022/05/08 00:27:52;;;;;;;22.55;12.93;;;;;;;;;;6209162;23;20182;-89
2022/05/08 00:30:57;;;;;;;18.20;12.00;;;;;;;;;;6208682;23;20250;-89
2022/05/08 00:34:03;;;;;;;18.45;12.05;;;;;;;;;;6226918;23;20662;-90
2022/05/08 00:37:08;;;;;;;17.38;11.43;;;;;;;;;;6208826;23;20175;-90
2022/05/08 00:40:16;;;;;;;23.05;13.10;;;;;;;;;;6208742;23;20171;-89
2022/05/08 00:43:25;;;;;;;17.58;12.18;;;;;;;;;;6210055;23;20244;-90
2022/05/08 00:46:31;;;;;;;21.20;12.13;;;;;;;;;;6210165;23;20611;-88
2022/05/08 00:49:36;;;;;;;18.70;12.75;;;;;;;;;;6210497;23;20210;-88
2022/05/08 00:52:46;;;;;;;17.95;12.05;;;;;;;;;;6226550;23;20681;-87
2022/05/08 00:55:55;;;;;;;19.15;12.30;;;;;;;;;;6208751;23;20183;-89
2022/05/08 00:59:00;;;;;;;19.05;11.57;;;;;;;;;;6210196;23;20159;-88
2022/05/08 01:02:05;;;;;;;18.60;11.63;;;;;;;;;;6209238;23;20711;-89
2022/05/08 01:05:11;;;;;;;20.38;12.50;;;;;;;;;;6225813;23;20163;-88
2022/05/08 01:08:17;;;;;;;23.27;12.82;;;;;;;;;;6210152;23;20171;-88
2022/05/08 01:11:23;;;;;;;20.40;12.30;;;;;;;;;;6225468;23;20167;-89
2022/05/08 01:14:28;;;;;;;18.40;12.02;;;;;;;;;;6226131;23;20384;-89
2022/05/08 01:17:34;;;;;;;19.27;13.02;;;;;;;;;;6209865;23;20183;-88
2022/05/08 01:20:40;;;;;;;19.83;12.02;;;;;;;;;;6208419;23;20287;-89
2022/05/08 01:23:47;;;;;;;18.83;12.10;;;;;;;;;;6208613;23;20157;-88
2022/05/08 01:26:52;;;;;;;21.13;12.25;;;;;;;;;;6206427;23;20187;-88
2022/05/08 01:29:57;;;;;;;16.58;11.00;;;;;;;;;;6206884;23;20166;-88
2022/05/08 01:33:03;;;;;;;17.95;11.82;;;;;;;;;;6206433;23;20222;-88
2022/05/08 01:36:08;;;;;;;17.05;11.18;;;;;;;;;;6226081;23;20158;-88
2022/05/08 01:39:14;;;;;;;18.10;10.95;;;;;;;;;;6225826;23;20278;-88
2022/05/08 01:42:19;;;;;;;15.57;10.98;;;;;;;;;;6209544;23;20167;-88
2022/05/08 01:45:24;;;;;;;17.42;11.05;;;;;;;;;;6212089;23;20175;-88
2022/05/08 01:48:30;;;;;;;19.83;11.38;;;;;;;;;;6210613;23;20607;-88
2022/05/08 01:51:35;;;;;;;17.90;11.00;;;;;;;;;;6212269;23;20170;-88
2022/05/08 01:54:42;;;;;;;19.73;11.30;;;;;;;;;;6212374;23;20167;-89
2022/05/08 01:57:49;;;;;;;17.30;11.15;;;;;;;;;;6212343;23;20164;-89
2022/05/08 02:00:55;;;;;;;16.23;10.88;;;;;;;;;;6230021;23;20170;-89
2022/05/08 02:04:00;;;;;;;17.30;11.13;;;;;;;;;;6230040;23;20382;-89
2022/05/08 02:07:05;;;;;;;23.27;12.73;;;;;;;;;;6230649;23;20171;-87
2022/05/08 02:10:12;;;;;;;15.15;10.43;;;;;;;;;;6212440;23;20166;-89
2022/05/08 02:13:17;;;;;;;19.00;11.05;;;;;;;;;;6211661;23;20194;-90
2022/05/08 02:16:23;;;;;;;16.75;10.60;;;;;;;;;;6212899;23;20154;-90
2022/05/08 02:19:27;;;;;;;14.90;10.45;;;;;;;;;;6211834;23;20731;-88
2022/05/08 02:22:32;;;;;;;17.92;11.13;;;;;;;;;;6212489;23;20170;-90
2022/05/08 02:25:39;;;;;;;14.43;9.98;;;;;;;;;;6212775;23;20282;-89
2022/05/08 02:28:44;;;;;;;15.10;10.68;;;;;;;;;;6230645;23;20611;-89
2022/05/08 02:31:50;;;;;;;14.85;10.65;;;;;;;;;;6211693;23;20211;-88
2022/05/08 02:34:55;;;;;;;18.20;11.07;;;;;;;;;;6212223;23;20171;-88
2022/05/08 02:37:59;;;;;;;17.98;10.63;;;;;;;;;;6227513;23;20175;-89
2022/05/08 02:41:06;;;;;;;20.40;10.93;;;;;;;;;;6212385;23;20152;-88
2022/05/08 02:44:11;;;;;;;15.73;10.82;;;;;;;;;;6211581;23;20163;-89
2022/05/08 02:47:17;;;;;;;19.10;11.27;;;;;;;;;;6209844;23;20175;-89
2022/05/08 02:50:22;;;;;;;16.00;10.98;;;;;;;;;;6210799;23;20195;-89
2022/05/08 02:53:27;;;;;;;18.65;11.63;;;;;;;;;;6210245;23;20210;-88
2022/05/08 02:59:56;;;;;;;20.90;12.73;;;;;;;;;;6209669;23;20198;-87
2022/05/08 03:03:01;;;;;;;17.05;11.60;;;;;;;;;;6209136;23;20167;-88
2022/05/08 03:06:07;;;;;;;18.05;10.82;;;;;;;;;;6211067;23;20155;-88
2022/05/08 03:09:11;;;;;;;17.33;11.35;;;;;;;;;;6211887;23;20171;-89
2022/05/08 03:12:18;;;;;;;16.05;11.45;;;;;;;;;;6228296;23;20495;-88
2022/05/08 03:15:24;;;;;;;17.70;11.55;;;;;;;;;;6211914;23;20163;-89
2022/05/08 03:18:29;;;;;;;19.75;12.02;;;;;;;;;;6210773;23;20245;-90
2022/05/08 03:21:35;;;;;;;17.08;11.77;;;;;;;;;;6211514;23;20218;-89
2022/05/08 03:24:40;;;;;;;19.77;11.68;;;;;;;;;;6210947;23;20179;-88
2022/05/08 03:27:46;;;;;;;20.25;12.20;;;;;;;;;;6210700;23;20167;-89
2022/05/08 03:30:51;;;;;;;17.83;11.73;;;;;;;;;;6210167;23;20162;-88
2022/05/08 03:33:56;;;;;;;22.25;12.65;;;;;;;;;;6212079;23;20191;-88
2022/05/08 03:37:02;;;;;;;19.42;12.07;;;;;;;;;;6210813;23;20222;-89
2022/05/08 03:40:08;;;;;;;18.13;12.10;;;;;;;;;;6212186;23;20163;-88
2022/05/08 03:43:14;;;;;;;17.02;11.35;;;;;;;;;;6211593;23;20170;-88
2022/05/08 03:46:19;;;;;;;19.45;11.90;;;;;;;;;;6210398;23;20167;-88
2022/05/08 03:49:25;;;;;;;21.27;11.85;;;;;;;;;;6212405;23;20151;-88
2022/05/08 03:52:30;;;;;;;21.10;11.45;;;;;;;;;;6210125;23;20195;-87
2022/05/08 03:55:36;;;;;;;20.23;11.13;;;;;;;;;;6210061;23;20151;-89
2022/05/08 03:58:42;;;;;;;16.75;10.95;;;;;;;;;;6210884;23;20174;-88
2022/05/08 04:01:49;;;;;;;16.75;10.38;;;;;;;;;;6208862;23;20167;-88
2022/05/08 04:04:54;;;;;;;18.20;11.45;;;;;;;;;;6213067;23;20163;-89
2022/05/08 04:07:59;;;;;;;19.45;11.65;;;;;;;;;;6209670;23;20630;-89
2022/05/08 04:11:05;;;;;;;19.17;12.07;;;;;;;;;;6210141;23;20243;-88
2022/05/08 04:14:12;;;;;;;18.70;11.00;;;;;;;;;;6226247;23;20720;-89
2022/05/08 04:17:17;;;;;;;16.73;11.57;;;;;;;;;;6211116;23;20158;-89
2022/05/08 04:20:23;;;;;;;22.20;11.82;;;;;;;;;;6210162;23;20223;-88
2022/05/08 04:26:51;;;;;;;18.35;12.13;;;;;;;;;;6212042;23;20168;-89
2022/05/08 04:29:57;;;;;;;17.70;11.77;;;;;;;;;;6211690;23;20242;-89
2022/05/08 04:33:02;;;;;;;21.13;11.98;;;;;;;;;;6211377;23;20176;-88
2022/05/08 04:36:08;;;;;;;17.83;11.95;;;;;;;;;;6215087;23;20163;-90
2022/05/08 04:39:13;;;;;;;20.80;11.27;;;;;;;;;;6210236;23;20622;-90
2022/05/08 04:42:18;;;;;;;19.13;11.80;;;;;;;;;;6211525;23;20147;-88
2022/05/08 04:45:25;;;;;;;18.08;11.77;;;;;;;;;;6211539;23;20496;-89
2022/05/08 04:48:30;;;;;;;21.25;12.02;;;;;;;;;;6228280;23;20191;-88
2022/05/08 04:51:39;;;;;;;15.70;11.30;;;;;;;;;;6210402;23;20191;-88
2022/05/08 04:54:44;;;;;;;15.18;10.15;;;;;;;;;;6211569;23;20194;-90
2022/05/08 04:57:49;;;;;;;16.35;10.48;;;;;;;;;;6228716;23;20163;-89
2022/05/08 05:00:56;;;;;;;14.02;9.90;;;;;;;;;;6214787;23;20194;-88
2022/05/08 05:04:03;;;;;;;17.02;11.05;;;;;;;;;;6211172;23;20167;-89
2022/05/08 05:07:08;;;;;;;16.17;11.00;;;;;;;;;;6210692;23;20228;-89
2022/05/08 05:10:13;;;;;;;17.52;11.43;;;;;;;;;;6212229;23;20225;-88
2022/05/08 05:13:18;;;;;;;15.38;10.70;;;;;;;;;;6229790;23;20167;-87
2022/05/08 05:16:25;;;;;;;18.80;11.68;;;;;;;;;;6212915;23;20215;-88
2022/05/08 05:19:31;;;;;;;17.08;11.40;;;;;;;;;;6213018;23;20167;-87
2022/05/08 05:22:36;;;;;;;20.63;11.82;;;;;;;;;;6209370;23;20210;-88
2022/05/08 05:25:41;;;;;;;17.90;11.55;;;;;;;;;;6226960;23;20175;-88
2022/05/08 05:28:48;;;;;;;19.33;12.63;;;;;;;;;;6208624;23;20211;-87
2022/05/08 05:31:54;;;;;;;18.98;11.68;;;;;;;;;;6228600;23;20167;-89
2022/05/08 05:34:59;;;;;;;20.60;12.80;;;;;;;;;;6228797;23;20195;-88
2022/05/08 05:38:04;;;;;;;22.40;13.07;;;;;;;;;;6212621;23;20238;-89
2022/05/08 05:41:16;;;;;;;20.17;12.85;;;;;;;;;;6213134;23;20207;-89
2022/05/08 05:44:21;;;;;;;19.63;12.93;;;;;;;;;;6211123;23;20171;-88
2022/05/08 05:50:51;;;;;;;18.92;11.93;;;;;;;;;;6214051;23;20167;-90
2022/05/08 05:53:56;;;;;;;21.42;11.95;;;;;;;;;;6210962;23;20191;-88
2022/05/08 05:57:02;;;;;;;17.55;11.60;;;;;;;;;;6229451;23;20171;-88
2022/05/08 06:00:10;;;;;;;21.55;12.82;;;;;;;;;;6212461;23;20245;-88
2022/05/08 06:03:19;;;;;;;20.92;12.30;;;;;;;;;;6231433;23;20196;-90
2022/05/08 06:06:25;;;;;;;17.55;11.43;;;;;;;;;;6214167;23;20168;-89
2022/05/08 06:09:30;;;;;;;17.23;11.73;;;;;;;;;;6212891;23;20167;-87
2022/05/08 06:12:36;;;;;;;18.25;11.88;;;;;;;;;;6213840;23;20167;-88
2022/05/08 06:15:40;;;;;;;20.02;11.20;;;;;;;;;;6212911;23;20174;-88
2022/05/08 06:18:47;;;;;;;16.23;10.45;;;;;;;;;;6212783;23;20247;-89
2022/05/08 06:21:53;;;;;;;16.08;11.07;;;;;;;;;;6212571;23;20171;-88
2022/05/08 06:24:58;;;;;;;17.95;11.88;;;;;;;;;;6212976;23;20274;-88
2022/05/08 06:28:04;;;;;;;18.13;11.02;;;;;;;;;;6229727;23;20167;-89
2022/05/08 06:31:10;;;;;;;15.57;10.65;;;;;;;;;;6208873;23;20729;-87
2022/05/08 06:34:16;;;;;;;20.98;11.02;;;;;;;;;;6212138;23;20218;-87
2022/05/08 06:37:22;;;;;;;16.95;11.40;;;;;;;;;;6210941;23;20242;-89
2022/05/08 06:40:27;;;;;;;19.02;11.13;;;;;;;;;;6211267;23;20520;-89
2022/05/08 06:43:32;;;;;;;16.35;10.52;;;;;;;;;;6211254;23;20258;-89
2022/05/08 06:46:37;;;;;;;16.67;10.63;;;;;;;;;;6212769;23;20191;-89
2022/05/08 06:49:45;;;;;;;20.02;11.10;;;;;;;;;;6210964;23;20630;-89
2022/05/08 06:52:51;;;;;;;14.68;10.55;;;;;;;;;;6213691;23;20249;-89
2022/05/08 06:55:57;;;;;;;15.82;10.82;;;;;;;;;;6212325;23;20197;-88
2022/05/08 07:02:27;;;;;;;17.05;10.07;;;;;;;;;;6213121;23;20175;-89
2022/05/08 07:05:40;;;;;;;14.73;10.05;;;;;;;;;;6230507;23;20183;-89
2022/05/08 07:08:48;;;;;;;15.43;10.20;;;;;;;;;;6214059;23;20168;-89
2022/05/08 07:11:53;;;;;;;17.13;10.82;;;;;;;;;;6213624;23;20203;-89
2022/05/08 07:15:00;;;;;;;17.75;10.75;;;;;;;;;;6212715;23;20190;-88
2022/05/08 07:18:09;;;;;;;13.88;10.02;;;;;;;;;;6213279;23;20254;-90
2022/05/08 07:21:15;;;;;;;15.40;10.20;;;;;;;;;;6214259;23;20151;-87
2022/05/08 07:24:20;;;;;;;15.90;10.95;;;;;;;;;;6215110;23;20183;-87
2022/05/08 07:27:26;;;;;;;15.68;10.18;;;;;;;;;;6215875;23;20163;-89
2022/05/08 07:30:32;;;;;;;16.50;11.25;;;;;;;;;;6231923;23;20222;-89
2022/05/08 07:33:38;;;;;;;16.88;11.13;;;;;;;;;;6213910;23;20147;-88
2022/05/08 07:36:44;;;;;;;16.98;11.13;;;;;;;;;;6214950;23;20171;-91
2022/05/08 07:39:49;;;;;;;16.15;10.65;;;;;;;;;;6214573;23;20223;-89
2022/05/08 07:42:54;;;;;;;16.52;10.45;;;;;;;;;;6216032;23;20170;-89
2022/05/08 07:46:00;;;;;;;17.90;10.50;;;;;;;;;;6213351;23;20186;-89
2022/05/08 07:49:05;;;;;;;14.13;10.48;;;;;;;;;;6215320;23;20162;-89
2022/05/08 07:52:15;;;;;;;15.52;10.02;;;;;;;;;;6214987;23;20511;-88
2022/05/08 07:55:20;;;;;;;13.68;10.10;;;;;;;;;;6213351;23;20194;-90
2022/05/08 07:58:27;;;;;;;18.52;10.68;;;;;;;;;;6230568;23;20237;-88
2022/05/08 08:01:33;;;;;;;14.55;9.82;;;;;;;;;;6213414;23;20271;-88
2022/05/08 08:04:39;;;;;;;13.32;10.13;;;;;;;;;;6214378;23;20159;-89
2022/05/08 08:07:46;;;;;;;15.55;10.38;;;;;;;;;;6212768;23;20175;-90
2022/05/08 08:11:03;;;;;;;17.95;10.65;;;;;;;;;;6215633;23;20163;-90
2022/05/08 08:14:08;;;;;;;14.65;10.48;;;;;;;;;;6215056;23;20223;-89
2022/05/08 08:17:14;;;;;;;26.27;12.63;;;;;;;;;;6212733;23;20167;-88
2022/05/08 08:20:21;;;;;;;18.30;11.10;;;;;;;;;;6213430;23;20171;-89
2022/05/08 08:23:29;;;;;;;19.88;12.38;;;;;;;;;;6229475;23;20203;-89
2022/05/08 08:26:34;;;;;;;18.90;11.93;;;;;;;;;;6214845;23;20677;-88
2022/05/08 08:29:38;;;;;;;16.30;10.38;;;;;;;;;;6230585;23;20611;-89
2022/05/08 08:32:45;;;;;;;13.02;9.60;;;;;;;;;;6210703;23;20232;-90
2022/05/08 08:35:50;;;;;;;17.38;10.05;;;;;;;;;;6229927;23;20181;-90
2022/05/08 08:38:57;;;;;;;15.38;9.75;;;;;;;;;;6213860;23;20159;-91
2022/05/08 08:42:04;;;;;;;10.65;8.40;;;;;;;;;;6228376;23;20171;-89
2022/05/08 08:48:34;;;;;;;13.77;8.40;;;;;;;;;;6231981;23;20152;-87
2022/05/08 08:51:39;;;;;;;15.35;8.63;;;;;;;;;;6231980;23;20629;-89
2022/05/08 08:54:47;;;;;;;12.00;7.90;;;;;;;;;;6232024;23;20190;-88
2022/05/08 08:57:52;;;;;;;18.17;9.57;;;;;;;;;;6213010;23;20630;-89
2022/05/08 09:00:58;;;;;;;14.63;8.35;;;;;;;;;;6215238;23;20151;-89
2022/05/08 09:04:03;;;;;;;10.30;7.22;;;;;;;;;;6231089;23;20166;-90
2022/05/08 09:07:29;;;;;;;8.13;5.85;;;;;;;;;;6232003;23;20279;-89
2022/05/08 09:10:36;;;;;;;7.93;5.15;;;;;;;;;;6216081;23;20151;-88
2022/05/08 09:13:51;;;;;;;10.60;5.72;;;;;;;;;;6230484;23;20171;-88
2022/05/08 09:16:56;;;;;;;12.25;6.25;;;;;;;;;;6232250;23;20170;-87
2022/05/08 09:20:06;;;;;;;11.90;5.30;;;;;;;;;;6218491;23;20196;-89
2022/05/08 09:23:14;;;;;;;11.75;5.63;;;;;;;;;;6218162;23;20191;-88
2022/05/08 09:26:27;;;;;;;8.68;4.70;;;;;;;;;;6217667;23;20170;-88
2022/05/08 09:29:34;;;;;;;5.80;4.13;;;;;;;;;;6232920;23;20175;-89
2022/05/08 09:32:42;;;;;;;7.18;4.80;;;;;;;;;;6215818;23;20155;-87
2022/05/08 09:35:48;;;;;;;9.38;4.65;;;;;;;;;;6233547;23;20520;-89
2022/05/08 09:38:54;;;;;;;8.65;4.53;;;;;;;;;;6232385;23;20171;-90
2022/05/08 09:42:01;;;;;;;8.57;4.13;;;;;;;;;;6215529;23;20219;-91
2022/05/08 09:45:08;;;;;;;6.65;3.97;;;;;;;;;;6232184;23;20163;-89
2022/05/08 09:48:20;;;;;;;7.90;4.40;;;;;;;;;;6231663;23;20164;-90
2022/05/08 09:51:26;;;;;;;7.82;4.28;;;;;;;;;;6231181;23;20228;-89
2022/05/08 09:54:32;;;;;;;7.97;4.38;;;;;;;;;;6231923;23;20645;-88
2022/05/08 09:57:40;;;;;;;10.48;4.30;;;;;;;;;;6233815;23;20155;-88
2022/05/08 10:00:46;;;;;;;8.38;4.22;;;;;;;;;;6215582;23;20171;-90
2022/05/08 10:03:59;;;;;;;8.30;4.53;;;;;;;;;;6232291;23;20199;-89
2022/05/08 10:07:05;;;;;;;7.40;3.90;;;;;;;;;;6217185;23;20191;-90
2022/05/08 10:13:55;;;;;;;6.20;3.70;;;;;;;;;;6230318;23;20195;-90
2022/05/08 10:17:09;;;;;;;8.95;4.30;;;;;;;;;;6217578;23;20155;-90
2022/05/08 10:20:15;;;;;;;9.52;4.28;;;;;;;;;;6231857;23;20246;-90
2022/05/08 10:23:34;;;;;;;5.47;3.97;;;;;;;;;;6232170;23;20170;-90
2022/05/08 10:26:41;;;;;;;6.90;4.00;;;;;;;;;;6231238;23;20167;-89
2022/05/08 10:30:02;;;;;;;10.02;4.10;;;;;;;;;;6228173;23;20226;-90
2022/05/08 10:33:10;;;;;;;8.88;4.03;;;;;;;;;;6213614;23;20175;-86
2022/05/08 11:38:11;;;;;;;12.60;6.63;;;;;;;;;;6126673;23;20237;-89
2022/05/08 11:41:17;;;;;;;9.82;5.88;;;;;;;;;;6142573;23;20203;-89
2022/05/08 11:44:28;;;;;;;6.75;4.20;;;;;;;;;;6126185;23;20169;-88
2022/05/08 11:47:33;;;;;;;6.38;4.15;;;;;;;;;;6125395;23;20181;-89
2022/05/08 11:50:39;;;;;;;8.30;4.28;;;;;;;;;;6125488;23;20170;-90
2022/05/08 11:53:46;;;;;;;6.10;4.22;;;;;;;;;;6143372;23;20169;-88
2022/05/08 11:56:53;;;;;;;10.38;4.95;;;;;;;;;;6144099;23;20253;-90
2022/05/08 12:00:06;;;;;;;7.20;4.10;;;;;;;;;;6124411;23;20177;-88
2022/05/08 12:03:27;;;;;;;9.85;4.60;;;;;;;;;;6123234;23;20181;-89
2022/05/08 12:06:34;;;;;;;6.30;4.15;;;;;;;;;;6126394;23;20231;-89
2022/05/08 12:09:41;;;;;;;13.25;4.40;;;;;;;;;;6142547;23;20164;-88
2022/05/08 12:12:47;;;;;;;9.80;4.40;;;;;;;;;;6141554;23;20221;-88
2022/05/08 12:16:11;;;;;;;9.05;4.20;;;;;;;;;;6125087;23;20197;-88
2022/05/08 12:19:18;;;;;;;9.02;4.50;;;;;;;;;;6124928;23;20189;-88
2022/05/08 12:22:25;;;;;;;7.80;4.30;;;;;;;;;;6143644;23;20174;-90
2022/05/08 12:25:45;;;;;;;8.38;4.85;;;;;;;;;;6142019;23;20186;-89
2022/05/08 12:28:51;;;;;;;6.15;4.18;;;;;;;;;;6124737;23;20170;-90
2022/05/08 12:31:56;;;;;;;7.82;3.97;;;;;;;;;;6123176;23;20340;-90
2022/05/08 12:35:04;;;;;;;9.95;4.50;;;;;;;;;;6129563;23;20168;-90
2022/05/08 12:38:09;;;;;;;7.32;4.53;;;;;;;;;;6124439;23;20173;-90
2022/05/08 12:41:17;;;;;;;9.23;4.68;;;;;;;;;;6125962;23;20173;-89
2022/05/08 23:07:08;;;;;;;10.35;6.50;;;;;;;;;;6210817;23;20219;-88
2022/05/08 23:10:13;;;;;;;11.15;6.93;;;;;;;;;;6227605;23;20175;-88
2022/05/08 23:13:19;;;;;;;16.05;6.97;;;;;;;;;;6226043;23;20163;-89
2022/05/08 23:16:25;;;;;;;13.40;6.90;;;;;;;;;;6225726;23;20171;-89
2022/05/08 23:19:31;;;;;;;13.30;6.72;;;;;;;;;;6226389;23;20220;-89
2022/05/08 23:22:37;;;;;;;16.55;7.55;;;;;;;;;;6209046;23;20166;-89
2022/05/08 23:25:45;;;;;;;11.40;6.30;;;;;;;;;;6226340;23;20665;-90
2022/05/08 23:28:50;;;;;;;12.60;6.35;;;;;;;;;;6226577;23;20168;-89
2022/05/08 23:31:57;;;;;;;16.48;6.85;;;;;;;;;;6226480;23;20148;-88
2022/05/08 23:35:02;;;;;;;14.95;6.90;;;;;;;;;;6226851;23;20167;-89
2022/05/08 23:38:08;;;;;;;14.82;6.78;;;;;;;;;;6226619;23;20151;-90
2022/05/08 23:41:13;;;;;;;11.43;7.03;;;;;;;;;;6227927;23;20163;-89
2022/05/08 23:44:18;;;;;;;12.05;6.78;;;;;;;;;;6226603;23;20178;-89
2022/05/08 23:47:25;;;;;;;11.70;6.82;;;;;;;;;;6226787;23;20171;-89
2022/05/08 23:50:30;;;;;;;12.15;6.40;;;;;;;;;;6226567;23;20292;-89
2022/05/08 23:53:35;;;;;;;15.88;6.53;;;;;;;;;;6225837;23;20205;-88
2022/05/08 23:56:41;;;;;;;12.13;7.03;;;;;;;;;;6226252;23;20237;-89
2022/05/08 23:59:45;;;;;;;15.27;7.13;;;;;;;;;;6209558;23;20257;-88
